Time;durP1;ratioP1;P1;durP2;ratioP2;P2;SDS_P1;SDS_P2;PMS_P1;PMS_P2;Temp;Humidity;BMP_temperature;BMP_pressure;BME280_temperature;BME280_humidity;BME280_pressure;Samples;Min_cycle;Max_cycle;Signal;HPM_P1;HPM_P2
2023/01/04 00:01:45;;;;;;;9.93;3.17;;;;;;;;;;5066561;28;20148;-63
2023/01/04 00:04:13;;;;;;;8.60;2.67;;;;;;;;;;5067406;28;20123;-63
2023/01/04 00:06:39;;;;;;;10.13;2.60;;;;;;;;;;5067140;28;20070;-63
2023/01/04 00:09:05;;;;;;;6.83;2.80;;;;;;;;;;5068630;28;20052;-63
2023/01/04 00:11:31;;;;;;;8.20;3.20;;;;;;;;;;5059983;28;20049;-63
2023/01/04 00:14:00;;;;;;;9.13;2.70;;;;;;;;;;5059249;28;20053;-63
2023/01/04 00:16:28;;;;;;;10.80;3.73;;;;;;;;;;5067475;28;20044;-63
2023/01/04 00:18:54;;;;;;;9.33;2.93;;;;;;;;;;5068003;28;20045;-63
2023/01/04 00:21:25;;;;;;;10.20;3.13;;;;;;;;;;5056363;28;20041;-63
2023/01/04 00:23:52;;;;;;;13.40;4.00;;;;;;;;;;5064529;28;20048;-64
2023/01/04 00:26:20;;;;;;;12.20;4.03;;;;;;;;;;5067116;28;20078;-64
2023/01/04 00:28:46;;;;;;;11.93;3.50;;;;;;;;;;5066813;28;20049;-64
2023/01/04 00:31:13;;;;;;;11.43;4.20;;;;;;;;;;5067771;28;20051;-65
2023/01/04 00:33:58;;;;;;;12.70;4.03;;;;;;;;;;5067412;28;20039;-66
2023/01/04 00:36:24;;;;;;;13.97;5.03;;;;;;;;;;5066877;28;20548;-65
2023/01/04 00:39:05;;;;;;;12.07;4.63;;;;;;;;;;5068151;28;20506;-66
2023/01/04 00:41:33;;;;;;;9.23;4.73;;;;;;;;;;5067790;28;20048;-66
2023/01/04 00:44:02;;;;;;;11.50;5.50;;;;;;;;;;5066175;28;20048;-65
2023/01/04 00:46:28;;;;;;;14.13;5.50;;;;;;;;;;5065917;28;20086;-65
2023/01/04 00:48:54;;;;;;;14.63;4.87;;;;;;;;;;5067664;28;20057;-65
2023/01/04 00:51:20;;;;;;;10.00;4.40;;;;;;;;;;5048611;28;20052;-66
2023/01/04 00:53:46;;;;;;;11.80;5.20;;;;;;;;;;5061259;28;20055;-66
2023/01/04 00:56:12;;;;;;;14.33;5.10;;;;;;;;;;5065958;28;20131;-65
2023/01/04 00:58:38;;;;;;;16.17;5.97;;;;;;;;;;5064061;28;20567;-66
2023/01/04 01:01:05;;;;;;;18.07;4.87;;;;;;;;;;5053080;28;20044;-66
2023/01/04 01:03:31;;;;;;;14.53;5.90;;;;;;;;;;5050433;28;20562;-66
2023/01/04 01:06:01;;;;;;;12.27;4.67;;;;;;;;;;5052750;28;20063;-65
2023/01/04 01:08:27;;;;;;;10.83;5.10;;;;;;;;;;5067276;28;20052;-65
2023/01/04 01:10:54;;;;;;;13.40;5.27;;;;;;;;;;5070640;28;20052;-65
2023/01/04 01:13:21;;;;;;;12.83;4.93;;;;;;;;;;5070897;28;20041;-66
2023/01/04 01:15:47;;;;;;;18.77;6.63;;;;;;;;;;5070764;28;20719;-66
2023/01/04 01:18:13;;;;;;;18.70;6.13;;;;;;;;;;5069834;28;20504;-66
2023/01/04 01:20:43;;;;;;;12.50;6.47;;;;;;;;;;5069999;28;20041;-66
2023/01/04 01:23:10;;;;;;;19.53;7.03;;;;;;;;;;5070599;28;20418;-67
2023/01/04 01:25:36;;;;;;;11.07;5.60;;;;;;;;;;5070509;28;20509;-66
2023/01/04 01:28:02;;;;;;;20.57;7.17;;;;;;;;;;5069931;28;20052;-66
2023/01/04 01:30:28;;;;;;;13.43;5.80;;;;;;;;;;5065442;28;20056;-67
2023/01/04 01:32:54;;;;;;;15.40;6.07;;;;;;;;;;5058160;28;20048;-67
2023/01/04 01:35:20;;;;;;;18.07;8.17;;;;;;;;;;5050410;28;20045;-66
2023/01/04 01:37:46;;;;;;;15.17;6.40;;;;;;;;;;5049628;28;20048;-66
2023/01/04 01:40:12;;;;;;;16.03;8.10;;;;;;;;;;5056872;28;20538;-66
2023/01/04 01:42:38;;;;;;;15.07;6.80;;;;;;;;;;5071013;28;20040;-66
2023/01/04 01:45:09;;;;;;;15.00;6.60;;;;;;;;;;5069921;28;20087;-66
2023/01/04 01:47:43;;;;;;;17.93;7.07;;;;;;;;;;5060969;28;20044;-66
2023/01/04 01:50:24;;;;;;;14.67;6.00;;;;;;;;;;5050571;28;20045;-66
2023/01/04 01:52:51;;;;;;;17.33;6.70;;;;;;;;;;5049382;28;20052;-66
2023/01/04 01:55:18;;;;;;;15.97;6.83;;;;;;;;;;5050588;28;20076;-66
2023/01/04 01:57:44;;;;;;;15.43;6.53;;;;;;;;;;5049943;28;20064;-66
2023/01/04 02:00:14;;;;;;;17.23;6.87;;;;;;;;;;5049595;28;20132;-66
2023/01/04 02:03:06;;;;;;;13.60;6.93;;;;;;;;;;5059354;28;20140;-67
2023/01/04 02:05:33;;;;;;;11.43;6.20;;;;;;;;;;5026192;28;20419;-66
2023/01/04 02:08:02;;;;;;;14.77;7.07;;;;;;;;;;5050397;28;20372;-66
2023/01/04 02:10:28;;;;;;;13.57;7.10;;;;;;;;;;5048960;28;20131;-66
2023/01/04 02:12:54;;;;;;;18.33;6.83;;;;;;;;;;5050446;28;20077;-66
2023/01/04 02:15:22;;;;;;;12.27;6.40;;;;;;;;;;5050088;28;20045;-67
2023/01/04 02:18:15;;;;;;;9.60;5.73;;;;;;;;;;5049625;28;20138;-66
2023/01/04 02:20:47;;;;;;;10.73;5.87;;;;;;;;;;5047013;28;20060;-66
2023/01/04 02:23:31;;;;;;;15.40;6.17;;;;;;;;;;5050112;28;20400;-66
2023/01/04 02:26:16;;;;;;;12.43;5.77;;;;;;;;;;5049794;28;20088;-66
2023/01/04 02:29:06;;;;;;;12.37;4.87;;;;;;;;;;5049461;28;20099;-66
2023/01/04 02:31:35;;;;;;;11.27;5.17;;;;;;;;;;5056992;28;20060;-66
2023/01/04 02:34:20;;;;;;;7.23;5.07;;;;;;;;;;5069720;28;20056;-66
2023/01/04 02:36:56;;;;;;;13.67;4.87;;;;;;;;;;5068640;28;20613;-66
2023/01/04 02:39:25;;;;;;;9.80;4.80;;;;;;;;;;5069265;28;20506;-66
2023/01/04 02:42:10;;;;;;;11.30;5.40;;;;;;;;;;5069690;28;20044;-66
2023/01/04 02:44:53;;;;;;;12.33;6.17;;;;;;;;;;5059571;28;20044;-66
2023/01/04 02:50:29;;;;;;;11.60;4.80;;;;;;;;;;5049382;28;20063;-67
2023/01/04 02:50:31;;;;;;;9.60;5.20;;;;;;;;;;5049842;28;20045;-66
2023/01/04 02:53:00;;;;;;;8.20;4.93;;;;;;;;;;5049552;28;20136;-66
2023/01/04 02:55:28;;;;;;;9.43;5.60;;;;;;;;;;5049068;28;20573;-65
2023/01/04 02:58:04;;;;;;;12.80;5.73;;;;;;;;;;5047931;28;20562;-66
2023/01/04 03:06:14;;;;;;;12.03;5.60;;;;;;;;;;5064059;28;20126;-67
2023/01/04 03:06:16;;;;;;;10.93;5.63;;;;;;;;;;5049277;28;20053;-66
2023/01/04 03:08:52;;;;;;;9.43;5.13;;;;;;;;;;5048810;28;20045;-66
2023/01/04 03:14:07;;;;;;;8.33;4.23;;;;;;;;;;5049002;28;20503;-66
2023/01/04 03:16:34;;;;;;;7.50;4.90;;;;;;;;;;5048987;28;20051;-66
2023/01/04 03:19:03;;;;;;;6.97;4.30;;;;;;;;;;5048701;28;20041;-66
2023/01/04 03:21:30;;;;;;;11.57;5.73;;;;;;;;;;5048783;28;20049;-66
2023/01/04 03:35:57;;;;;;;9.07;5.57;;;;;;;;;;5048728;28;20056;-66
2023/01/04 03:49:56;;;;;;;10.53;6.33;;;;;;;;;;5068522;28;20101;-66
2023/01/04 03:52:23;;;;;;;11.00;7.30;;;;;;;;;;5068457;28;20041;-66
2023/01/04 03:54:49;;;;;;;12.87;7.13;;;;;;;;;;5067367;28;20051;-68
2023/01/04 03:57:17;;;;;;;14.87;7.70;;;;;;;;;;5068616;28;20044;-65
2023/01/04 03:59:48;;;;;;;14.07;6.60;;;;;;;;;;5051459;28;20048;-65
2023/01/04 04:02:18;;;;;;;12.17;6.70;;;;;;;;;;5048017;28;20045;-65
2023/01/04 04:10:14;;;;;;;10.87;6.53;;;;;;;;;;5048447;28;20059;-64
2023/01/04 04:12:40;;;;;;;11.40;6.63;;;;;;;;;;5056622;28;20036;-64
2023/01/04 04:15:07;;;;;;;9.50;6.23;;;;;;;;;;5068348;28;20052;-65
2023/01/04 04:17:33;;;;;;;11.03;6.50;;;;;;;;;;5068391;28;20045;-64
2023/01/04 04:19:59;;;;;;;10.27;6.30;;;;;;;;;;5067634;28;20075;-64
2023/01/04 04:22:25;;;;;;;12.77;6.60;;;;;;;;;;5067177;28;20056;-64
2023/01/04 04:24:51;;;;;;;9.50;7.07;;;;;;;;;;5068563;28;20048;-65
2023/01/04 04:27:17;;;;;;;10.97;6.90;;;;;;;;;;5064977;28;20044;-65
2023/01/04 04:29:43;;;;;;;11.37;6.77;;;;;;;;;;5067127;28;20040;-65
2023/01/04 04:32:09;;;;;;;11.13;7.23;;;;;;;;;;5068486;28;20052;-64
2023/01/04 04:34:36;;;;;;;9.70;6.47;;;;;;;;;;5068136;28;20041;-64
2023/01/04 04:37:02;;;;;;;11.20;7.30;;;;;;;;;;5067907;28;20736;-64
2023/01/04 04:39:28;;;;;;;11.53;7.70;;;;;;;;;;5071473;28;20082;-64
2023/01/04 04:41:54;;;;;;;19.73;9.13;;;;;;;;;;5061071;28;20045;-64
2023/01/04 04:44:20;;;;;;;11.67;7.80;;;;;;;;;;5053118;28;20871;-64
2023/01/04 04:46:47;;;;;;;11.60;7.17;;;;;;;;;;5051418;28;20057;-64
2023/01/04 04:49:13;;;;;;;12.80;7.80;;;;;;;;;;5052075;28;20071;-64
2023/01/04 04:51:40;;;;;;;15.43;8.07;;;;;;;;;;5051557;28;20127;-64
2023/01/04 04:54:07;;;;;;;13.20;8.07;;;;;;;;;;5051824;28;20098;-64
2023/01/04 04:56:35;;;;;;;13.63;8.33;;;;;;;;;;5051911;28;20081;-64
2023/01/04 04:59:01;;;;;;;13.50;8.77;;;;;;;;;;5051015;28;20056;-65
2023/01/04 05:01:27;;;;;;;13.57;8.57;;;;;;;;;;5051632;28;20123;-64
2023/01/04 05:03:55;;;;;;;11.47;8.50;;;;;;;;;;5051583;28;20072;-64
2023/01/04 05:06:21;;;;;;;11.90;7.83;;;;;;;;;;5051123;28;20045;-64
2023/01/04 05:08:47;;;;;;;10.67;8.40;;;;;;;;;;5051835;28;20051;-64
2023/01/04 05:11:13;;;;;;;12.13;8.53;;;;;;;;;;5059960;28;20048;-64
2023/01/04 05:13:39;;;;;;;16.27;9.70;;;;;;;;;;5064664;28;20044;-64
2023/01/04 05:16:07;;;;;;;11.97;8.27;;;;;;;;;;5071482;28;20423;-64
2023/01/04 05:18:33;;;;;;;14.47;9.53;;;;;;;;;;5071110;28;20048;-64
2023/01/04 05:20:59;;;;;;;10.73;8.60;;;;;;;;;;5071288;28;20094;-64
2023/01/04 05:23:25;;;;;;;14.10;9.30;;;;;;;;;;5071066;28;20048;-65
2023/01/04 05:25:52;;;;;;;12.03;9.00;;;;;;;;;;5045605;28;20049;-65
2023/01/04 05:28:18;;;;;;;22.43;11.70;;;;;;;;;;5051026;28;20072;-65
2023/01/04 05:30:52;;;;;;;13.20;9.10;;;;;;;;;;5049724;28;20462;-64
2023/01/04 05:33:18;;;;;;;;;;;;;;;;;;5051403;28;20052;-64
2023/01/04 05:35:44;;;;;;;12.60;8.80;;;;;;;;;;5049565;28;19925;-64
2023/01/04 05:38:10;;;;;;;17.07;10.13;;;;;;;;;;5049583;28;20049;-65
2023/01/04 05:40:36;;;;;;;12.53;8.93;;;;;;;;;;5056360;28;20097;-64
2023/01/04 05:43:03;;;;;;;11.93;7.90;;;;;;;;;;5056775;28;20415;-64
2023/01/04 05:45:29;;;;;;;11.63;8.57;;;;;;;;;;5048705;28;20483;-65
2023/01/04 05:47:55;;;;;;;11.33;8.50;;;;;;;;;;5050665;28;20107;-64
2023/01/04 05:50:22;;;;;;;13.03;9.20;;;;;;;;;;5049402;28;20107;-65
2023/01/04 05:52:48;;;;;;;12.50;8.00;;;;;;;;;;5050509;28;20578;-64
2023/01/04 05:55:15;;;;;;;11.20;8.20;;;;;;;;;;5068545;28;20049;-64
2023/01/04 05:57:41;;;;;;;12.13;7.80;;;;;;;;;;5067854;28;20044;-64
2023/01/04 06:00:08;;;;;;;18.27;9.07;;;;;;;;;;5067700;28;20051;-64
2023/01/04 06:02:34;;;;;;;12.33;8.40;;;;;;;;;;5068840;28;20113;-64
2023/01/04 06:05:02;;;;;;;11.23;7.73;;;;;;;;;;5068610;28;20474;-64
2023/01/04 06:07:28;;;;;;;10.80;7.40;;;;;;;;;;5069061;28;20528;-65
2023/01/04 06:09:54;;;;;;;14.10;8.07;;;;;;;;;;5070462;28;20044;-64
2023/01/04 06:12:21;;;;;;;11.03;6.90;;;;;;;;;;5069043;28;20131;-64
2023/01/04 06:14:47;;;;;;;12.53;6.87;;;;;;;;;;5070349;28;20066;-65
2023/01/04 06:17:13;;;;;;;15.43;8.23;;;;;;;;;;5069910;28;20040;-65
2023/01/04 06:19:39;;;;;;;23.03;7.50;;;;;;;;;;5070186;28;20415;-65
2023/01/04 06:22:05;;;;;;;0.00;0.00;;;;;;;;;;5068828;28;20338;-65
2023/01/04 06:24:32;;;;;;;0.33;0.30;;;;;;;;;;5067249;28;20414;-65
2023/01/04 06:26:59;;;;;;;0.20;0.20;;;;;;;;;;5069698;28;20049;-65
2023/01/04 06:29:25;;;;;;;0.20;0.20;;;;;;;;;;5060089;28;20056;-65
2023/01/04 06:31:51;;;;;;;0.00;0.00;;;;;;;;;;5068870;28;20486;-66
2023/01/04 06:34:17;;;;;;;0.43;0.40;;;;;;;;;;5051775;28;20056;-65
2023/01/04 06:36:43;;;;;;;0.00;0.00;;;;;;;;;;5069850;28;20056;-66
2023/01/04 06:39:09;;;;;;;0.73;0.43;;;;;;;;;;5069705;28;20041;-65
2023/01/04 06:41:35;;;;;;;0.00;0.00;;;;;;;;;;5067917;28;20041;-65
2023/01/04 06:44:02;;;;;;;0.10;0.10;;;;;;;;;;5047954;28;20427;-66
2023/01/04 06:46:28;;;;;;;0.87;0.47;;;;;;;;;;5049012;28;20503;-65
2023/01/04 06:48:54;;;;;;;0.23;0.17;;;;;;;;;;5047850;28;20045;-65
2023/01/04 06:51:20;;;;;;;0.23;0.20;;;;;;;;;;5047891;28;20059;-66
2023/01/04 06:53:47;;;;;;;0.93;0.20;;;;;;;;;;5057505;28;20052;-65
2023/01/04 06:56:13;;;;;;;0.33;0.23;;;;;;;;;;5068083;28;20075;-65
2023/01/04 06:58:39;;;;;;;0.90;0.30;;;;;;;;;;5069049;28;20212;-65
2023/01/04 07:01:05;;;;;;;0.40;0.40;;;;;;;;;;5066657;28;20049;-65
2023/01/04 07:03:31;;;;;;;0.03;0.03;;;;;;;;;;5067921;28;20056;-65
2023/01/04 07:05:58;;;;;;;0.03;0.00;;;;;;;;;;5069291;28;20560;-65
2023/01/04 07:08:24;;;;;;;0.17;0.17;;;;;;;;;;5060360;28;20514;-65
2023/01/04 07:10:50;;;;;;;0.00;0.00;;;;;;;;;;5047663;28;20495;-65
2023/01/04 07:13:17;;;;;;;0.03;0.03;;;;;;;;;;5051056;28;20621;-65
2023/01/04 07:15:43;;;;;;;0.00;0.00;;;;;;;;;;5047118;28;20045;-65
2023/01/04 07:18:09;;;;;;;0.00;0.00;;;;;;;;;;5048716;28;20056;-65
2023/01/04 07:20:36;;;;;;;0.00;0.00;;;;;;;;;;5046956;28;20052;-65
2023/01/04 07:23:02;;;;;;;0.00;0.00;;;;;;;;;;5055432;28;20047;-65
2023/01/04 07:25:28;;;;;;;1.60;0.20;;;;;;;;;;5068449;28;20689;-65
2023/01/04 07:27:55;;;;;;;0.30;0.30;;;;;;;;;;5054644;28;20049;-65
2023/01/04 07:30:21;;;;;;;0.10;0.10;;;;;;;;;;5055330;28;20053;-65
2023/01/04 07:32:48;;;;;;;0.00;0.00;;;;;;;;;;5054108;28;20418;-65
2023/01/04 07:35:14;;;;;;;10.70;7.07;;;;;;;;;;5042830;28;20462;-65
2023/01/04 07:37:42;;;;;;;1999.90;999.90;;;;;;;;;;5065634;28;20044;-65
2023/01/04 07:40:08;;;;;;;14.80;6.83;;;;;;;;;;5049131;28;20049;-65
2023/01/04 07:42:34;;;;;;;8.27;5.80;;;;;;;;;;5063940;28;20053;-65
2023/01/04 07:45:00;;;;;;;11.07;6.90;;;;;;;;;;5067132;28;20064;-65
2023/01/04 07:47:27;;;;;;;9.87;5.77;;;;;;;;;;5067526;28;20123;-66
2023/01/04 07:49:53;;;;;;;12.43;7.33;;;;;;;;;;5066991;28;20595;-65
2023/01/04 07:52:19;;;;;;;11.17;6.60;;;;;;;;;;5063281;28;20041;-65
2023/01/04 07:54:45;;;;;;;11.23;6.70;;;;;;;;;;5061038;28;20466;-65
2023/01/04 07:57:11;;;;;;;19.00;7.23;;;;;;;;;;5065358;28;20114;-66
2023/01/04 07:59:37;;;;;;;14.13;7.47;;;;;;;;;;5066411;28;20057;-65
2023/01/04 08:02:04;;;;;;;12.53;6.73;;;;;;;;;;5058627;28;20058;-65
2023/01/04 08:04:30;;;;;;;15.33;6.50;;;;;;;;;;5052816;28;20052;-66
2023/01/04 08:06:56;;;;;;;12.47;6.70;;;;;;;;;;5056844;28;20041;-66
2023/01/04 08:09:22;;;;;;;12.63;7.07;;;;;;;;;;5053332;28;20045;-66
2023/01/04 08:11:50;;;;;;;15.80;6.90;;;;;;;;;;5064429;28;20518;-66
2023/01/04 08:14:16;;;;;;;12.13;7.53;;;;;;;;;;5050674;28;20552;-65
2023/01/04 08:16:45;;;;;;;10.80;8.10;;;;;;;;;;5059041;28;20128;-65
2023/01/04 08:19:13;;;;;;;16.13;8.83;;;;;;;;;;5061371;28;20217;-66
2023/01/04 08:21:40;;;;;;;19.90;8.97;;;;;;;;;;5057015;28;20044;-66
2023/01/04 08:24:06;;;;;;;0.00;0.00;;;;;;;;;;5071728;28;20049;-66
2023/01/04 08:26:32;;;;;;;0.00;0.00;;;;;;;;;;5068151;28;20056;-66
2023/01/04 08:28:58;;;;;;;0.00;0.00;;;;;;;;;;5060258;28;20060;-66
2023/01/04 08:31:26;;;;;;;0.00;0.00;;;;;;;;;;5052047;28;20143;-68
2023/01/04 08:33:55;;;;;;;0.00;0.00;;;;;;;;;;5051358;28;20052;-66
2023/01/04 08:36:21;;;;;;;0.00;0.00;;;;;;;;;;5064851;28;20188;-66
2023/01/04 08:38:48;;;;;;;0.00;0.00;;;;;;;;;;5071241;28;20049;-65
2023/01/04 08:41:15;;;;;;;0.00;0.00;;;;;;;;;;5053680;28;20044;-66
2023/01/04 08:43:41;;;;;;;0.00;0.00;;;;;;;;;;5070243;28;20040;-66
2023/01/04 08:46:08;;;;;;;0.00;0.00;;;;;;;;;;5071383;28;20056;-66
2023/01/04 08:48:34;;;;;;;0.00;0.00;;;;;;;;;;5069818;28;20109;-66
2023/01/04 08:51:05;;;;;;;0.00;0.00;;;;;;;;;;5057705;28;20087;-66
2023/01/04 08:53:32;;;;;;;0.00;0.00;;;;;;;;;;5051034;28;20147;-66
2023/01/04 08:55:59;;;;;;;0.00;0.00;;;;;;;;;;5050149;28;20091;-66
2023/01/04 08:58:26;;;;;;;0.00;0.00;;;;;;;;;;5051405;28;20151;-66
2023/01/04 09:00:52;;;;;;;0.00;0.00;;;;;;;;;;5051361;28;20506;-66
2023/01/04 09:03:17;;;;;;;0.00;0.00;;;;;;;;;;5050681;28;20091;-66
2023/01/04 09:05:44;;;;;;;0.00;0.00;;;;;;;;;;5064157;28;20083;-66
2023/01/04 09:08:10;;;;;;;0.00;0.00;;;;;;;;;;5069836;28;20045;-66
2023/01/04 09:10:37;;;;;;;8.23;4.60;;;;;;;;;;5070210;28;20080;-66
2023/01/04 09:13:03;;;;;;;10.73;5.97;;;;;;;;;;5071212;28;20048;-66
2023/01/04 09:15:29;;;;;;;11.83;5.03;;;;;;;;;;5069675;28;20044;-66
2023/01/04 09:17:55;;;;;;;12.40;5.00;;;;;;;;;;5069850;28;20056;-68
2023/01/04 09:20:21;;;;;;;9.27;5.20;;;;;;;;;;5069418;28;20177;-66
2023/01/04 09:22:47;;;;;;;0.00;0.00;;;;;;;;;;5068590;28;20396;-69
2023/01/04 09:25:13;;;;;;;0.00;0.00;;;;;;;;;;5069572;28;20075;-69
2023/01/04 09:27:40;;;;;;;0.00;0.00;;;;;;;;;;5070657;28;20127;-66
2023/01/04 09:30:07;;;;;;;0.00;0.00;;;;;;;;;;5070628;28;20557;-67
2023/01/04 09:32:36;;;;;;;0.00;0.00;;;;;;;;;;5069892;28;20053;-66
2023/01/04 09:35:02;;;;;;;0.00;0.00;;;;;;;;;;5056563;28;20053;-66
2023/01/04 09:37:28;;;;;;;0.00;0.00;;;;;;;;;;5049868;28;20057;-66
2023/01/04 09:39:54;;;;;;;0.00;0.00;;;;;;;;;;5049947;28;20064;-66
2023/01/04 09:42:27;;;;;;;0.00;0.00;;;;;;;;;;5050046;28;20499;-65
2023/01/04 09:45:00;;;;;;;0.00;0.00;;;;;;;;;;5049970;28;20541;-66
2023/01/04 09:47:34;;;;;;;0.00;0.00;;;;;;;;;;5055383;28;20049;-65
2023/01/04 09:50:06;;;;;;;0.10;0.07;;;;;;;;;;5068987;28;20044;-65
2023/01/04 09:52:40;;;;;;;7.40;2.60;;;;;;;;;;5069824;28;20078;-65
2023/01/04 09:55:08;;;;;;;5.17;3.67;;;;;;;;;;5068301;28;20384;-65
2023/01/04 09:57:41;;;;;;;7.07;4.43;;;;;;;;;;5069846;28;20565;-65
2023/01/04 10:00:13;;;;;;;5.10;3.80;;;;;;;;;;5068967;28;20569;-66
2023/01/04 10:02:47;;;;;;;5.30;3.67;;;;;;;;;;5063578;28;20044;-66
2023/01/04 10:05:30;;;;;;;5.30;3.90;;;;;;;;;;5069573;28;20066;-66
2023/01/04 10:07:56;;;;;;;5.93;4.33;;;;;;;;;;5069215;28;20548;-65
2023/01/04 10:10:42;;;;;;;4.63;3.77;;;;;;;;;;5068235;28;20118;-65
2023/01/04 10:13:14;;;;;;;6.13;4.03;;;;;;;;;;5068400;28;20131;-65
2023/01/04 10:15:42;;;;;;;8.17;4.10;;;;;;;;;;5052197;28;20191;-65
2023/01/04 10:18:08;;;;;;;5.90;4.33;;;;;;;;;;5049922;28;20057;-65
2023/01/04 10:20:40;;;;;;;7.90;5.00;;;;;;;;;;5049445;28;20060;-66
2023/01/04 10:23:08;;;;;;;7.20;5.03;;;;;;;;;;5049808;28;20084;-65
2023/01/04 10:25:46;;;;;;;9.87;5.40;;;;;;;;;;5048139;28;20057;-65
2023/01/04 10:28:30;;;;;;;11.13;5.43;;;;;;;;;;5047561;28;20519;-65
2023/01/04 10:31:02;;;;;;;9.13;5.80;;;;;;;;;;5048254;28;20415;-66
2023/01/04 10:33:28;;;;;;;9.17;6.73;;;;;;;;;;5049198;28;20044;-65
2023/01/04 10:35:55;;;;;;;11.80;6.93;;;;;;;;;;5047517;28;20544;-65
2023/01/04 10:38:26;;;;;;;11.17;6.67;;;;;;;;;;5031509;28;20052;-66
2023/01/04 10:40:53;;;;;;;14.53;7.77;;;;;;;;;;5049034;28;20041;-65
2023/01/04 10:43:38;;;;;;;11.60;6.73;;;;;;;;;;5048079;28;20049;-65
2023/01/04 10:46:04;;;;;;;15.97;7.10;;;;;;;;;;5047450;28;20079;-65
2023/01/04 10:48:39;;;;;;;13.67;7.37;;;;;;;;;;5047143;28;20053;-65
2023/01/04 10:51:08;;;;;;;11.00;6.10;;;;;;;;;;5048889;28;20051;-65
2023/01/04 10:53:39;;;;;;;17.07;7.10;;;;;;;;;;5064674;28;20643;-65
2023/01/04 10:56:12;;;;;;;13.47;6.53;;;;;;;;;;5068920;28;20049;-65
2023/01/04 10:58:45;;;;;;;16.83;8.07;;;;;;;;;;5067456;28;20045;-66
2023/01/04 11:01:14;;;;;;;19.90;7.43;;;;;;;;;;5067265;28;20434;-65
2023/01/04 11:03:46;;;;;;;22.93;7.00;;;;;;;;;;5067487;28;20052;-65
2023/01/04 11:06:15;;;;;;;19.47;7.80;;;;;;;;;;5068745;28;20052;-65
2023/01/04 11:08:45;;;;;;;17.83;8.10;;;;;;;;;;5052302;28;20041;-65
2023/01/04 11:11:19;;;;;;;15.80;6.50;;;;;;;;;;5048626;28;20056;-65
2023/01/04 11:13:45;;;;;;;16.67;8.10;;;;;;;;;;5047521;28;20459;-65
2023/01/04 11:16:13;;;;;;;16.10;7.80;;;;;;;;;;5048074;28;20126;-65
2023/01/04 11:18:40;;;;;;;21.43;7.27;;;;;;;;;;5048667;28;20124;-65
2023/01/04 11:21:08;;;;;;;23.03;6.77;;;;;;;;;;5048395;28;20580;-65
2023/01/04 11:23:34;;;;;;;15.53;7.20;;;;;;;;;;5048238;28;20446;-65
2023/01/04 11:26:05;;;;;;;29.03;8.70;;;;;;;;;;5033665;28;20118;-65
2023/01/04 11:28:49;;;;;;;19.50;7.50;;;;;;;;;;5047731;28;20044;-65
2023/01/04 11:31:21;;;;;;;12.48;5.75;;;;;;;;;;5048322;28;20190;-65
2023/01/04 11:34:05;;;;;;;26.30;8.77;;;;;;;;;;5049312;28;20128;-65
2023/01/04 11:36:31;;;;;;;21.53;8.03;;;;;;;;;;5050013;28;20539;-65
2023/01/04 11:39:00;;;;;;;22.23;8.17;;;;;;;;;;5055377;28;20135;-64
2023/01/04 11:41:29;;;;;;;28.30;8.50;;;;;;;;;;5059266;28;20036;-65
2023/01/04 11:43:59;;;;;;;21.63;7.40;;;;;;;;;;5062663;28;20540;-65
2023/01/04 11:46:26;;;;;;;31.60;9.47;;;;;;;;;;5066452;28;20062;-64
2023/01/04 11:48:52;;;;;;;25.63;8.87;;;;;;;;;;5067377;28;20051;-64
2023/01/04 11:51:18;;;;;;;24.47;7.83;;;;;;;;;;5059145;28;20383;-64
2023/01/04 11:53:44;;;;;;;21.97;9.10;;;;;;;;;;5068953;28;20105;-64
2023/01/04 11:56:18;;;;;;;22.57;7.53;;;;;;;;;;5052106;28;20391;-64
2023/01/04 11:58:44;;;;;;;;;;;;;;;;;;5060507;28;20040;-64
2023/01/04 12:01:23;;;;;;;21.00;7.60;;;;;;;;;;5054693;28;19926;-64
2023/01/04 12:03:50;;;;;;;16.30;7.20;;;;;;;;;;5053678;28;20355;-64
2023/01/04 12:06:30;;;;;;;18.07;5.50;;;;;;;;;;5039115;28;20052;-64
2023/01/04 12:08:56;;;;;;;12.53;6.03;;;;;;;;;;5050223;28;20164;-65
2023/01/04 12:11:45;;;;;;;18.40;4.97;;;;;;;;;;5067174;28;20049;-65
2023/01/04 12:14:17;;;;;;;19.50;4.60;;;;;;;;;;5058247;28;20040;-64
2023/01/04 12:16:51;;;;;;;7.93;3.70;;;;;;;;;;5066477;28;20455;-64
2023/01/04 12:19:20;;;;;;;7.63;4.60;;;;;;;;;;5065767;28;20045;-64
2023/01/04 12:21:51;;;;;;;4.00;2.67;;;;;;;;;;5054267;28;20548;-64
2023/01/04 12:24:19;;;;;;;9.83;3.20;;;;;;;;;;5061657;28;20521;-65
2023/01/04 12:26:45;;;;;;;7.63;4.03;;;;;;;;;;5055618;28;20295;-64
2023/01/04 12:29:23;;;;;;;9.50;4.50;;;;;;;;;;5059697;28;20040;-64
2023/01/04 12:31:53;;;;;;;16.37;6.77;;;;;;;;;;5067224;28;20080;-64
2023/01/04 12:34:22;;;;;;;16.43;6.60;;;;;;;;;;5064318;28;20041;-65
2023/01/04 12:36:48;;;;;;;9.73;4.40;;;;;;;;;;5057128;28;20098;-65
2023/01/04 12:39:14;;;;;;;10.50;3.93;;;;;;;;;;5052017;28;20242;-65
2023/01/04 12:41:39;;;;;;;14.43;4.70;;;;;;;;;;5066515;28;20045;-65
2023/01/04 12:44:42;;;;;;;9.53;2.83;;;;;;;;;;5054356;28;20422;-65
2023/01/04 12:50:12;;;;;;;8.70;3.40;;;;;;;;;;5065527;28;20499;-65
2023/01/04 12:52:41;;;;;;;7.90;3.97;;;;;;;;;;5062216;28;20047;-65
2023/01/04 12:55:26;;;;;;;10.77;4.03;;;;;;;;;;5053457;28;20040;-66
2023/01/04 12:57:52;;;;;;;6.47;3.03;;;;;;;;;;5066304;28;20060;-65
2023/01/04 13:00:18;;;;;;;13.23;3.93;;;;;;;;;;5067579;28;20045;-65
2023/01/04 13:02:51;;;;;;;16.73;4.17;;;;;;;;;;5066491;28;20047;-65
2023/01/04 13:05:17;;;;;;;16.73;3.90;;;;;;;;;;5059589;28;20048;-65
2023/01/04 13:07:57;;;;;;;17.67;3.33;;;;;;;;;;5061520;28;20158;-65
2023/01/04 13:10:31;;;;;;;14.67;3.50;;;;;;;;;;5069432;28;20517;-64
2023/01/04 13:13:16;;;;;;;17.07;3.80;;;;;;;;;;5063255;28;20128;-64
2023/01/04 13:15:47;;;;;;;14.77;3.30;;;;;;;;;;5055273;28;20060;-65
2023/01/04 13:18:34;;;;;;;19.10;3.60;;;;;;;;;;5067907;28;20040;-65
2023/01/04 13:21:01;;;;;;;21.03;4.07;;;;;;;;;;5063458;28;20052;-65
2023/01/04 13:23:28;;;;;;;16.57;4.17;;;;;;;;;;5068140;28;20422;-64
2023/01/04 13:25:54;;;;;;;14.93;4.07;;;;;;;;;;5070424;28;20036;-65
2023/01/04 13:28:22;;;;;;;14.13;3.17;;;;;;;;;;5069598;28;20124;-65
2023/01/04 13:30:48;;;;;;;18.47;3.80;;;;;;;;;;5071083;28;20097;-64
2023/01/04 13:33:23;;;;;;;19.30;3.47;;;;;;;;;;5068992;28;20047;-64
2023/01/04 13:36:03;;;;;;;22.93;4.33;;;;;;;;;;5066968;28;20531;-65
2023/01/04 13:38:30;;;;;;;19.97;3.57;;;;;;;;;;5051502;28;20436;-64
2023/01/04 13:40:56;;;;;;;21.10;4.37;;;;;;;;;;5064256;28;20056;-64
2023/01/04 13:43:36;;;;;;;18.83;3.63;;;;;;;;;;5069769;28;20049;-65
2023/01/04 13:46:14;;;;;;;28.47;4.80;;;;;;;;;;5069898;28;20703;-64
2023/01/04 13:48:41;;;;;;;21.33;3.97;;;;;;;;;;5069883;28;20423;-64
2023/01/04 13:51:10;;;;;;;24.40;3.40;;;;;;;;;;5071341;28;20347;-64
2023/01/04 13:53:36;;;;;;;23.07;3.97;;;;;;;;;;5067587;28;20045;-65
2023/01/04 13:56:03;;;;;;;17.50;4.30;;;;;;;;;;5069620;28;20044;-65
2023/01/04 13:58:33;;;;;;;21.03;4.10;;;;;;;;;;5069747;28;20051;-64
2023/01/04 14:01:02;;;;;;;18.97;3.67;;;;;;;;;;5066503;28;20056;-64
2023/01/04 14:03:32;;;;;;;18.40;4.00;;;;;;;;;;5069173;28;20041;-64
2023/01/04 14:06:10;;;;;;;24.17;4.57;;;;;;;;;;5050970;28;20074;-64
2023/01/04 14:08:39;;;;;;;20.80;3.80;;;;;;;;;;5068841;28;20058;-64
2023/01/04 14:11:13;;;;;;;21.67;4.77;;;;;;;;;;5067578;28;20499;-64
2023/01/04 14:13:44;;;;;;;20.33;3.60;;;;;;;;;;5069659;28;20047;-64
2023/01/04 14:16:14;;;;;;;22.87;3.50;;;;;;;;;;5067049;28;20032;-64
2023/01/04 14:18:40;;;;;;;20.93;3.77;;;;;;;;;;5068816;28;20082;-64
2023/01/04 14:21:16;;;;;;;15.00;3.10;;;;;;;;;;5068594;28;20442;-64
2023/01/04 14:23:42;;;;;;;17.47;3.37;;;;;;;;;;5069304;28;20143;-64
2023/01/04 14:26:32;;;;;;;31.67;5.07;;;;;;;;;;5069289;28;20047;-64
2023/01/04 14:29:01;;;;;;;19.23;3.40;;;;;;;;;;5066894;28;20044;-64
2023/01/04 14:31:29;;;;;;;17.90;2.90;;;;;;;;;;5066364;28;20055;-64
2023/01/04 14:33:55;;;;;;;16.27;5.17;;;;;;;;;;5049931;28;20503;-64
2023/01/04 14:36:26;;;;;;;22.30;3.83;;;;;;;;;;5061958;28;20453;-64
2023/01/04 14:39:11;;;;;;;14.30;4.17;;;;;;;;;;5065359;28;20525;-64
2023/01/04 14:41:37;;;;;;;18.63;3.30;;;;;;;;;;5067670;28;20059;-64
2023/01/04 14:44:19;;;;;;;14.17;2.37;;;;;;;;;;5069227;28;20040;-65
2023/01/04 14:46:48;;;;;;;14.83;2.87;;;;;;;;;;5061431;28;20144;-63
2023/01/04 14:49:18;;;;;;;13.90;2.80;;;;;;;;;;5050933;28;20037;-64
2023/01/04 14:51:47;;;;;;;19.83;4.17;;;;;;;;;;5069456;28;20105;-64
2023/01/04 14:54:14;;;;;;;15.57;3.53;;;;;;;;;;5068315;28;20052;-65
2023/01/04 14:56:40;;;;;;;15.43;2.93;;;;;;;;;;5068753;28;20491;-65
2023/01/04 14:59:07;;;;;;;19.13;3.17;;;;;;;;;;5068721;28;20127;-65
2023/01/04 15:01:33;;;;;;;17.63;3.37;;;;;;;;;;5067437;28;20045;-65
2023/01/04 15:03:59;;;;;;;14.50;3.60;;;;;;;;;;5056282;28;20076;-65
2023/01/04 15:06:25;;;;;;;16.97;4.13;;;;;;;;;;5067068;28;20419;-65
2023/01/04 15:08:51;;;;;;;19.73;4.63;;;;;;;;;;5058821;28;20041;-65
2023/01/04 15:11:18;;;;;;;20.40;3.60;;;;;;;;;;5054616;28;20045;-65
2023/01/04 15:13:44;;;;;;;16.57;4.03;;;;;;;;;;5057503;28;20051;-65
2023/01/04 15:16:12;;;;;;;16.50;3.80;;;;;;;;;;5066040;28;20181;-65
2023/01/04 15:18:38;;;;;;;18.73;3.80;;;;;;;;;;5069326;28;20079;-64
2023/01/04 15:21:04;;;;;;;17.83;3.63;;;;;;;;;;5067201;28;20044;-65
2023/01/04 15:23:30;;;;;;;21.73;3.60;;;;;;;;;;5062580;28;20044;-65